sensor_id;sensor_type;location;lat;lon;timestamp;temperature;humidity
17887;DHT22;9069;52.044;7.472;2023-11-18T00:01:41;7.50;96.90
17887;DHT22;9069;52.044;7.472;2023-11-18T00:04:09;7.50;96.90
17887;DHT22;9069;52.044;7.472;2023-11-18T00:06:43;7.50;96.90
17887;DHT22;9069;52.044;7.472;2023-11-18T00:09:13;7.50;97.00
17887;DHT22;9069;52.044;7.472;2023-11-18T00:11:41;7.40;97.00
17887;DHT22;9069;52.044;7.472;2023-11-18T00:14:09;7.40;97.10
17887;DHT22;9069;52.044;7.472;2023-11-18T00:16:37;7.40;97.10
17887;DHT22;9069;52.044;7.472;2023-11-18T00:19:05;7.40;97.10
17887;DHT22;9069;52.044;7.472;2023-11-18T00:21:32;7.40;97.20
17887;DHT22;9069;52.044;7.472;2023-11-18T00:23:59;7.40;97.20
17887;DHT22;9069;52.044;7.472;2023-11-18T00:26:27;7.40;97.20
17887;DHT22;9069;52.044;7.472;2023-11-18T00:28:58;7.40;97.20
17887;DHT22;9069;52.044;7.472;2023-11-18T00:31:27;7.40;97.30
17887;DHT22;9069;52.044;7.472;2023-11-18T00:33:54;7.40;97.30
17887;DHT22;9069;52.044;7.472;2023-11-18T00:36:21;7.40;97.40
17887;DHT22;9069;52.044;7.472;2023-11-18T00:38:48;7.40;97.40
17887;DHT22;9069;52.044;7.472;2023-11-18T00:41:15;7.40;97.40
17887;DHT22;9069;52.044;7.472;2023-11-18T00:43:44;7.40;97.40
17887;DHT22;9069;52.044;7.472;2023-11-18T00:46:11;7.40;97.40
17887;DHT22;9069;52.044;7.472;2023-11-18T00:48:38;7.40;97.40
17887;DHT22;9069;52.044;7.472;2023-11-18T00:51:08;7.40;97.40
17887;DHT22;9069;52.044;7.472;2023-11-18T00:53:35;7.40;97.40
17887;DHT22;9069;52.044;7.472;2023-11-18T00:56:02;7.40;97.40
17887;DHT22;9069;52.044;7.472;2023-11-18T00:58:34;7.40;97.50
17887;DHT22;9069;52.044;7.472;2023-11-18T01:01:06;7.40;97.40
17887;DHT22;9069;52.044;7.472;2023-11-18T01:03:33;7.40;97.40
17887;DHT22;9069;52.044;7.472;2023-11-18T01:06:06;7.40;97.40
17887;DHT22;9069;52.044;7.472;2023-11-18T01:08:33;7.40;97.40
17887;DHT22;9069;52.044;7.472;2023-11-18T01:11:00;7.40;97.40
17887;DHT22;9069;52.044;7.472;2023-11-18T01:13:30;7.40;97.30
17887;DHT22;9069;52.044;7.472;2023-11-18T01:16:05;7.30;97.20
17887;DHT22;9069;52.044;7.472;2023-11-18T01:18:32;7.40;97.20
17887;DHT22;9069;52.044;7.472;2023-11-18T01:21:05;7.30;97.20
17887;DHT22;9069;52.044;7.472;2023-11-18T01:23:32;7.40;97.20
17887;DHT22;9069;52.044;7.472;2023-11-18T01:26:05;7.30;97.20
17887;DHT22;9069;52.044;7.472;2023-11-18T01:28:34;7.30;97.10
17887;DHT22;9069;52.044;7.472;2023-11-18T01:31:05;7.30;97.10
17887;DHT22;9069;52.044;7.472;2023-11-18T01:33:39;7.30;97.00
17887;DHT22;9069;52.044;7.472;2023-11-18T01:36:08;7.30;96.90
17887;DHT22;9069;52.044;7.472;2023-11-18T01:38:36;7.30;96.90
17887;DHT22;9069;52.044;7.472;2023-11-18T01:41:05;7.30;96.80
17887;DHT22;9069;52.044;7.472;2023-11-18T01:43:32;7.20;96.70
17887;DHT22;9069;52.044;7.472;2023-11-18T01:46:00;7.20;96.70
17887;DHT22;9069;52.044;7.472;2023-11-18T01:48:30;7.20;96.70
17887;DHT22;9069;52.044;7.472;2023-11-18T01:51:01;7.20;96.60
17887;DHT22;9069;52.044;7.472;2023-11-18T01:53:34;7.20;96.60
17887;DHT22;9069;52.044;7.472;2023-11-18T01:56:02;7.10;96.60
17887;DHT22;9069;52.044;7.472;2023-11-18T01:58:36;7.10;96.50
17887;DHT22;9069;52.044;7.472;2023-11-18T02:01:04;7.10;96.50
17887;DHT22;9069;52.044;7.472;2023-11-18T02:03:35;7.00;96.50
17887;DHT22;9069;52.044;7.472;2023-11-18T02:06:04;7.00;96.50
17887;DHT22;9069;52.044;7.472;2023-11-18T02:08:33;7.00;96.50
17887;DHT22;9069;52.044;7.472;2023-11-18T02:11:31;6.90;96.50
17887;DHT22;9069;52.044;7.472;2023-11-18T02:14:01;6.90;96.50
17887;DHT22;9069;52.044;7.472;2023-11-18T02:16:31;6.90;96.60
17887;DHT22;9069;52.044;7.472;2023-11-18T02:18:59;6.80;96.60
17887;DHT22;9069;52.044;7.472;2023-11-18T02:21:29;6.90;96.70
17887;DHT22;9069;52.044;7.472;2023-11-18T02:23:57;6.80;96.70
17887;DHT22;9069;52.044;7.472;2023-11-18T02:26:25;6.80;96.70
17887;DHT22;9069;52.044;7.472;2023-11-18T02:28:52;6.80;96.80
17887;DHT22;9069;52.044;7.472;2023-11-18T02:31:29;6.70;96.90
17887;DHT22;9069;52.044;7.472;2023-11-18T02:34:05;6.70;97.00
17887;DHT22;9069;52.044;7.472;2023-11-18T02:36:40;6.70;97.40
17887;DHT22;9069;52.044;7.472;2023-11-18T02:39:27;6.70;97.10
17887;DHT22;9069;52.044;7.472;2023-11-18T02:41:56;6.70;97.10
17887;DHT22;9069;52.044;7.472;2023-11-18T02:44:24;6.70;97.10
17887;DHT22;9069;52.044;7.472;2023-11-18T02:46:51;6.70;97.10
17887;DHT22;9069;52.044;7.472;2023-11-18T02:49:18;6.70;97.20
17887;DHT22;9069;52.044;7.472;2023-11-18T02:51:45;6.60;97.10
17887;DHT22;9069;52.044;7.472;2023-11-18T02:54:14;6.60;97.10
17887;DHT22;9069;52.044;7.472;2023-11-18T02:56:42;6.60;97.10
17887;DHT22;9069;52.044;7.472;2023-11-18T02:59:09;6.60;97.20
17887;DHT22;9069;52.044;7.472;2023-11-18T03:01:36;6.70;97.30
17887;DHT22;9069;52.044;7.472;2023-11-18T03:04:06;6.60;97.40
17887;DHT22;9069;52.044;7.472;2023-11-18T03:06:33;6.60;97.40
17887;DHT22;9069;52.044;7.472;2023-11-18T03:09:00;6.60;97.50
17887;DHT22;9069;52.044;7.472;2023-11-18T03:11:29;6.60;98.00
17887;DHT22;9069;52.044;7.472;2023-11-18T03:13:57;6.60;97.70
17887;DHT22;9069;52.044;7.472;2023-11-18T03:16:24;6.60;97.80
17887;DHT22;9069;52.044;7.472;2023-11-18T03:18:51;6.60;97.80
17887;DHT22;9069;52.044;7.472;2023-11-18T03:21:18;6.60;97.90
17887;DHT22;9069;52.044;7.472;2023-11-18T03:23:48;6.60;98.00
17887;DHT22;9069;52.044;7.472;2023-11-18T03:26:15;6.60;98.00
17887;DHT22;9069;52.044;7.472;2023-11-18T03:28:41;6.60;98.40
17887;DHT22;9069;52.044;7.472;2023-11-18T03:31:08;6.60;98.10
17887;DHT22;9069;52.044;7.472;2023-11-18T03:33:35;6.60;98.10
17887;DHT22;9069;52.044;7.472;2023-11-18T03:36:05;6.60;98.10
17887;DHT22;9069;52.044;7.472;2023-11-18T03:38:33;6.60;98.10
17887;DHT22;9069;52.044;7.472;2023-11-18T03:41:00;6.60;98.10
17887;DHT22;9069;52.044;7.472;2023-11-18T03:43:30;6.60;98.10
17887;DHT22;9069;52.044;7.472;2023-11-18T03:45:56;6.60;98.10
17887;DHT22;9069;52.044;7.472;2023-11-18T03:48:23;6.50;98.10
17887;DHT22;9069;52.044;7.472;2023-11-18T03:50:51;6.50;98.10
17887;DHT22;9069;52.044;7.472;2023-11-18T03:53:17;6.50;98.10
17887;DHT22;9069;52.044;7.472;2023-11-18T03:55:44;6.50;98.10
17887;DHT22;9069;52.044;7.472;2023-11-18T03:58:11;6.50;98.00
17887;DHT22;9069;52.044;7.472;2023-11-18T04:00:38;6.50;98.00
17887;DHT22;9069;52.044;7.472;2023-11-18T04:03:05;6.40;98.00
17887;DHT22;9069;52.044;7.472;2023-11-18T04:05:33;6.40;98.00
17887;DHT22;9069;52.044;7.472;2023-11-18T04:08:02;6.40;98.10
17887;DHT22;9069;52.044;7.472;2023-11-18T04:10:28;6.40;98.10
17887;DHT22;9069;52.044;7.472;2023-11-18T04:12:55;6.40;98.10
17887;DHT22;9069;52.044;7.472;2023-11-18T04:15:23;6.30;98.20
17887;DHT22;9069;52.044;7.472;2023-11-18T04:17:50;6.30;98.20
17887;DHT22;9069;52.044;7.472;2023-11-18T04:20:18;6.30;98.30
17887;DHT22;9069;52.044;7.472;2023-11-18T04:22:45;6.30;98.40
17887;DHT22;9069;52.044;7.472;2023-11-18T04:25:12;6.30;98.40
17887;DHT22;9069;52.044;7.472;2023-11-18T04:27:39;6.30;98.40
17887;DHT22;9069;52.044;7.472;2023-11-18T04:30:11;6.30;98.40
17887;DHT22;9069;52.044;7.472;2023-11-18T04:32:39;6.30;98.50
17887;DHT22;9069;52.044;7.472;2023-11-18T04:35:09;6.30;98.50
17887;DHT22;9069;52.044;7.472;2023-11-18T04:37:38;6.30;98.50
17887;DHT22;9069;52.044;7.472;2023-11-18T04:40:09;6.20;98.50
17887;DHT22;9069;52.044;7.472;2023-11-18T04:42:40;6.30;98.50
17887;DHT22;9069;52.044;7.472;2023-11-18T04:45:07;6.30;98.50
17887;DHT22;9069;52.044;7.472;2023-11-18T04:47:36;6.30;98.90
17887;DHT22;9069;52.044;7.472;2023-11-18T04:50:05;6.20;98.50
17887;DHT22;9069;52.044;7.472;2023-11-18T04:52:32;6.20;98.40
17887;DHT22;9069;52.044;7.472;2023-11-18T04:55:02;6.20;98.40
17887;DHT22;9069;52.044;7.472;2023-11-18T04:57:32;6.20;98.40
17887;DHT22;9069;52.044;7.472;2023-11-18T04:59:58;6.20;98.50
17887;DHT22;9069;52.044;7.472;2023-11-18T05:02:27;6.20;98.50
17887;DHT22;9069;52.044;7.472;2023-11-18T05:04:54;6.20;98.60
17887;DHT22;9069;52.044;7.472;2023-11-18T05:07:21;6.20;98.70
17887;DHT22;9069;52.044;7.472;2023-11-18T05:09:48;6.20;98.70
17887;DHT22;9069;52.044;7.472;2023-11-18T05:12:15;6.20;98.80
17887;DHT22;9069;52.044;7.472;2023-11-18T05:14:41;6.20;98.80
17887;DHT22;9069;52.044;7.472;2023-11-18T05:17:08;6.20;98.90
17887;DHT22;9069;52.044;7.472;2023-11-18T05:19:35;6.20;98.90
17887;DHT22;9069;52.044;7.472;2023-11-18T05:22:02;6.20;98.90
17887;DHT22;9069;52.044;7.472;2023-11-18T05:24:30;6.20;98.90
17887;DHT22;9069;52.044;7.472;2023-11-18T05:26:57;6.20;98.90
17887;DHT22;9069;52.044;7.472;2023-11-18T05:29:28;6.20;98.90
17887;DHT22;9069;52.044;7.472;2023-11-18T05:31:55;6.20;99.00
17887;DHT22;9069;52.044;7.472;2023-11-18T05:34:22;6.20;99.00
17887;DHT22;9069;52.044;7.472;2023-11-18T05:36:49;6.20;99.10
17887;DHT22;9069;52.044;7.472;2023-11-18T05:39:21;6.20;99.10
17887;DHT22;9069;52.044;7.472;2023-11-18T05:41:52;6.20;99.10
17887;DHT22;9069;52.044;7.472;2023-11-18T05:44:19;6.20;99.10
17887;DHT22;9069;52.044;7.472;2023-11-18T05:46:48;6.20;99.20
17887;DHT22;9069;52.044;7.472;2023-11-18T05:49:18;6.20;99.20
17887;DHT22;9069;52.044;7.472;2023-11-18T05:51:49;6.20;99.20
17887;DHT22;9069;52.044;7.472;2023-11-18T05:54:16;6.20;99.20
17887;DHT22;9069;52.044;7.472;2023-11-18T05:56:43;6.20;99.30
17887;DHT22;9069;52.044;7.472;2023-11-18T05:59:10;6.20;99.30
17887;DHT22;9069;52.044;7.472;2023-11-18T06:01:37;6.20;99.40
17887;DHT22;9069;52.044;7.472;2023-11-18T06:04:04;6.20;99.40
17887;DHT22;9069;52.044;7.472;2023-11-18T06:06:35;6.20;99.40
17887;DHT22;9069;52.044;7.472;2023-11-18T06:09:03;6.20;99.40
17887;DHT22;9069;52.044;7.472;2023-11-18T06:11:36;6.20;99.40
17887;DHT22;9069;52.044;7.472;2023-11-18T06:14:07;6.20;99.40
17887;DHT22;9069;52.044;7.472;2023-11-18T06:16:35;6.20;99.40
17887;DHT22;9069;52.044;7.472;2023-11-18T06:19:06;6.20;99.40
17887;DHT22;9069;52.044;7.472;2023-11-18T06:21:33;6.20;99.30
17887;DHT22;9069;52.044;7.472;2023-11-18T06:24:00;6.20;99.60
17887;DHT22;9069;52.044;7.472;2023-11-18T06:26:28;6.20;99.30
17887;DHT22;9069;52.044;7.472;2023-11-18T06:28:56;6.20;99.30
17887;DHT22;9069;52.044;7.472;2023-11-18T06:31:23;6.20;99.30
17887;DHT22;9069;52.044;7.472;2023-11-18T06:33:51;6.20;99.30
17887;DHT22;9069;52.044;7.472;2023-11-18T06:36:19;6.20;99.30
17887;DHT22;9069;52.044;7.472;2023-11-18T06:38:50;6.20;99.30
17887;DHT22;9069;52.044;7.472;2023-11-18T06:41:20;6.20;99.40
17887;DHT22;9069;52.044;7.472;2023-11-18T06:43:51;6.20;99.40
17887;DHT22;9069;52.044;7.472;2023-11-18T06:46:19;6.20;99.30
17887;DHT22;9069;52.044;7.472;2023-11-18T06:48:50;6.20;99.30
17887;DHT22;9069;52.044;7.472;2023-11-18T06:51:17;6.20;99.30
17887;DHT22;9069;52.044;7.472;2023-11-18T06:53:43;6.20;99.20
17887;DHT22;9069;52.044;7.472;2023-11-18T06:56:11;6.20;99.10
17887;DHT22;9069;52.044;7.472;2023-11-18T06:58:39;6.10;99.00
17887;DHT22;9069;52.044;7.472;2023-11-18T07:01:07;6.10;99.00
17887;DHT22;9069;52.044;7.472;2023-11-18T07:03:35;6.10;98.90
17887;DHT22;9069;52.044;7.472;2023-11-18T07:06:03;6.00;99.00
17887;DHT22;9069;52.044;7.472;2023-11-18T07:08:56;6.00;98.90
17887;DHT22;9069;52.044;7.472;2023-11-18T07:11:32;5.90;98.90
17887;DHT22;9069;52.044;7.472;2023-11-18T07:13:59;5.90;99.10
17887;DHT22;9069;52.044;7.472;2023-11-18T07:16:28;5.90;99.10
17887;DHT22;9069;52.044;7.472;2023-11-18T07:18:55;5.90;99.20
17887;DHT22;9069;52.044;7.472;2023-11-18T07:21:22;5.80;99.30
17887;DHT22;9069;52.044;7.472;2023-11-18T07:23:49;5.80;99.50
17887;DHT22;9069;52.044;7.472;2023-11-18T07:26:16;5.80;99.60
17887;DHT22;9069;52.044;7.472;2023-11-18T07:28:43;5.80;99.60
17887;DHT22;9069;52.044;7.472;2023-11-18T07:31:10;5.90;99.80
17887;DHT22;9069;52.044;7.472;2023-11-18T07:33:39;5.80;99.90
17887;DHT22;9069;52.044;7.472;2023-11-18T07:36:10;5.90;99.90
17887;DHT22;9069;52.044;7.472;2023-11-18T07:38:39;5.90;99.90
17887;DHT22;9069;52.044;7.472;2023-11-18T07:41:06;5.90;99.90
17887;DHT22;9069;52.044;7.472;2023-11-18T07:43:35;5.90;99.90
17887;DHT22;9069;52.044;7.472;2023-11-18T07:46:07;6.00;99.90
17887;DHT22;9069;52.044;7.472;2023-11-18T07:48:34;6.00;99.90
17887;DHT22;9069;52.044;7.472;2023-11-18T07:51:02;6.00;99.90
17887;DHT22;9069;52.044;7.472;2023-11-18T07:53:31;6.10;99.90
17887;DHT22;9069;52.044;7.472;2023-11-18T07:55:58;6.10;99.90
17887;DHT22;9069;52.044;7.472;2023-11-18T07:58:25;6.10;99.90
17887;DHT22;9069;52.044;7.472;2023-11-18T08:00:53;6.10;99.90
17887;DHT22;9069;52.044;7.472;2023-11-18T08:03:21;6.20;99.90
17887;DHT22;9069;52.044;7.472;2023-11-18T08:05:49;6.20;99.90
17887;DHT22;9069;52.044;7.472;2023-11-18T08:08:15;6.20;99.90
17887;DHT22;9069;52.044;7.472;2023-11-18T08:10:45;6.30;99.90
17887;DHT22;9069;52.044;7.472;2023-11-18T08:13:15;6.30;99.90
17887;DHT22;9069;52.044;7.472;2023-11-18T08:15:43;6.40;99.90
17887;DHT22;9069;52.044;7.472;2023-11-18T08:18:14;6.40;99.90
17887;DHT22;9069;52.044;7.472;2023-11-18T08:20:40;6.50;99.90
17887;DHT22;9069;52.044;7.472;2023-11-18T08:23:08;6.50;99.90
17887;DHT22;9069;52.044;7.472;2023-11-18T08:25:35;6.50;99.90
17887;DHT22;9069;52.044;7.472;2023-11-18T08:28:07;6.60;99.90
17887;DHT22;9069;52.044;7.472;2023-11-18T08:30:37;6.60;99.90
17887;DHT22;9069;52.044;7.472;2023-11-18T08:33:04;6.70;99.90
17887;DHT22;9069;52.044;7.472;2023-11-18T08:35:36;6.70;99.90
17887;DHT22;9069;52.044;7.472;2023-11-18T08:38:04;6.70;99.90
17887;DHT22;9069;52.044;7.472;2023-11-18T08:40:31;6.80;99.90
17887;DHT22;9069;52.044;7.472;2023-11-18T08:42:58;6.80;99.90
17887;DHT22;9069;52.044;7.472;2023-11-18T08:45:26;6.80;99.90
17887;DHT22;9069;52.044;7.472;2023-11-18T08:48:00;6.90;99.90
17887;DHT22;9069;52.044;7.472;2023-11-18T08:50:28;6.90;99.90
17887;DHT22;9069;52.044;7.472;2023-11-18T08:52:55;6.90;99.90
17887;DHT22;9069;52.044;7.472;2023-11-18T08:55:27;6.90;99.90
17887;DHT22;9069;52.044;7.472;2023-11-18T08:58:11;7.00;99.90
17887;DHT22;9069;52.044;7.472;2023-11-18T09:00:56;7.00;99.90
17887;DHT22;9069;52.044;7.472;2023-11-18T09:03:31;7.00;99.90
17887;DHT22;9069;52.044;7.472;2023-11-18T09:06:06;7.00;99.90
17887;DHT22;9069;52.044;7.472;2023-11-18T09:08:45;7.10;99.90
17887;DHT22;9069;52.044;7.472;2023-11-18T09:11:14;7.00;99.90
17887;DHT22;9069;52.044;7.472;2023-11-18T09:13:43;7.10;99.90
17887;DHT22;9069;52.044;7.472;2023-11-18T09:16:11;7.10;99.90
17887;DHT22;9069;52.044;7.472;2023-11-18T09:18:39;7.10;99.90
17887;DHT22;9069;52.044;7.472;2023-11-18T09:21:09;7.10;99.90
17887;DHT22;9069;52.044;7.472;2023-11-18T09:23:42;7.10;99.90
17887;DHT22;9069;52.044;7.472;2023-11-18T09:26:10;7.20;99.90
17887;DHT22;9069;52.044;7.472;2023-11-18T09:28:37;7.20;99.90
17887;DHT22;9069;52.044;7.472;2023-11-18T09:31:05;7.20;99.90
17887;DHT22;9069;52.044;7.472;2023-11-18T09:33:33;7.20;99.90
17887;DHT22;9069;52.044;7.472;2023-11-18T09:36:03;7.20;99.90
17887;DHT22;9069;52.044;7.472;2023-11-18T09:38:40;7.20;99.90
17887;DHT22;9069;52.044;7.472;2023-11-18T09:41:09;7.30;99.90
17887;DHT22;9069;52.044;7.472;2023-11-18T09:43:40;7.30;99.90
17887;DHT22;9069;52.044;7.472;2023-11-18T09:46:17;7.30;99.90
17887;DHT22;9069;52.044;7.472;2023-11-18T09:48:50;7.40;99.90
17887;DHT22;9069;52.044;7.472;2023-11-18T09:51:22;7.40;99.90
17887;DHT22;9069;52.044;7.472;2023-11-18T09:53:53;7.40;99.90
17887;DHT22;9069;52.044;7.472;2023-11-18T09:57:03;7.50;99.90
17887;DHT22;9069;52.044;7.472;2023-11-18T09:59:57;7.50;99.90
17887;DHT22;9069;52.044;7.472;2023-11-18T10:02:28;7.60;99.90
17887;DHT22;9069;52.044;7.472;2023-11-18T10:04:57;7.60;99.90
17887;DHT22;9069;52.044;7.472;2023-11-18T10:07:25;7.60;99.90
17887;DHT22;9069;52.044;7.472;2023-11-18T10:09:57;7.70;99.90
17887;DHT22;9069;52.044;7.472;2023-11-18T10:12:24;7.70;99.90
17887;DHT22;9069;52.044;7.472;2023-11-18T10:14:53;7.80;99.90
17887;DHT22;9069;52.044;7.472;2023-11-18T10:17:21;7.80;99.90
17887;DHT22;9069;52.044;7.472;2023-11-18T10:19:55;7.80;99.90
17887;DHT22;9069;52.044;7.472;2023-11-18T10:22:27;7.90;99.90
17887;DHT22;9069;52.044;7.472;2023-11-18T10:24:57;7.90;99.90
17887;DHT22;9069;52.044;7.472;2023-11-18T10:27:26;8.00;99.90
17887;DHT22;9069;52.044;7.472;2023-11-18T10:30:11;8.00;99.90
17887;DHT22;9069;52.044;7.472;2023-11-18T10:32:59;8.00;99.90
17887;DHT22;9069;52.044;7.472;2023-11-18T10:35:33;8.10;99.90
17887;DHT22;9069;52.044;7.472;2023-11-18T10:38:02;8.10;99.90
17887;DHT22;9069;52.044;7.472;2023-11-18T10:40:35;8.20;99.90
17887;DHT22;9069;52.044;7.472;2023-11-18T10:43:03;8.10;99.90
17887;DHT22;9069;52.044;7.472;2023-11-18T10:45:37;8.40;99.90
17887;DHT22;9069;52.044;7.472;2023-11-18T10:48:12;8.20;99.90
17887;DHT22;9069;52.044;7.472;2023-11-18T10:50:46;8.20;99.90
17887;DHT22;9069;52.044;7.472;2023-11-18T10:53:13;8.20;99.90
17887;DHT22;9069;52.044;7.472;2023-11-18T10:55:43;8.20;99.90
17887;DHT22;9069;52.044;7.472;2023-11-18T10:58:10;8.30;99.90
17887;DHT22;9069;52.044;7.472;2023-11-18T11:00:48;8.30;99.90
17887;DHT22;9069;52.044;7.472;2023-11-18T11:03:16;8.30;99.90
17887;DHT22;9069;52.044;7.472;2023-11-18T11:05:43;8.30;99.90
17887;DHT22;9069;52.044;7.472;2023-11-18T11:08:14;8.30;99.90
17887;DHT22;9069;52.044;7.472;2023-11-18T11:10:57;8.30;99.90
17887;DHT22;9069;52.044;7.472;2023-11-18T11:13:29;8.30;99.90
17887;DHT22;9069;52.044;7.472;2023-11-18T11:15:56;8.40;99.90
17887;DHT22;9069;52.044;7.472;2023-11-18T11:18:28;8.40;99.90
17887;DHT22;9069;52.044;7.472;2023-11-18T11:21:11;8.40;99.90
17887;DHT22;9069;52.044;7.472;2023-11-18T11:24:01;8.40;99.90
17887;DHT22;9069;52.044;7.472;2023-11-18T11:26:44;8.50;99.90
17887;DHT22;9069;52.044;7.472;2023-11-18T11:29:35;8.50;99.90
17887;DHT22;9069;52.044;7.472;2023-11-18T11:34:30;8.50;99.90
17887;DHT22;9069;52.044;7.472;2023-11-18T11:36:59;8.50;99.90
17887;DHT22;9069;52.044;7.472;2023-11-18T11:39:28;8.60;99.90
17887;DHT22;9069;52.044;7.472;2023-11-18T11:41:57;8.60;99.90
17887;DHT22;9069;52.044;7.472;2023-11-18T11:44:25;8.60;99.90
17887;DHT22;9069;52.044;7.472;2023-11-18T11:46:59;8.70;99.90
17887;DHT22;9069;52.044;7.472;2023-11-18T11:49:34;8.70;99.90
17887;DHT22;9069;52.044;7.472;2023-11-18T11:52:09;8.70;99.90
17887;DHT22;9069;52.044;7.472;2023-11-18T11:55:08;8.70;99.90
17887;DHT22;9069;52.044;7.472;2023-11-18T11:57:39;8.80;99.90
17887;DHT22;9069;52.044;7.472;2023-11-18T12:00:10;8.80;99.90
17887;DHT22;9069;52.044;7.472;2023-11-18T12:02:50;8.80;99.90
17887;DHT22;9069;52.044;7.472;2023-11-18T12:05:25;8.80;99.90
17887;DHT22;9069;52.044;7.472;2023-11-18T12:07:53;8.80;99.90
17887;DHT22;9069;52.044;7.472;2023-11-18T12:10:27;8.90;99.90
17887;DHT22;9069;52.044;7.472;2023-11-18T12:15:48;8.90;99.90
17887;DHT22;9069;52.044;7.472;2023-11-18T12:18:21;8.90;99.90
17887;DHT22;9069;52.044;7.472;2023-11-18T12:20:48;8.90;99.90
17887;DHT22;9069;52.044;7.472;2023-11-18T12:23:20;8.90;99.90
17887;DHT22;9069;52.044;7.472;2023-11-18T12:25:52;9.00;99.90
17887;DHT22;9069;52.044;7.472;2023-11-18T12:28:30;9.00;99.90
17887;DHT22;9069;52.044;7.472;2023-11-18T12:31:04;9.00;99.90
17887;DHT22;9069;52.044;7.472;2023-11-18T12:39:21;9.10;99.90
17887;DHT22;9069;52.044;7.472;2023-11-18T12:42:02;9.10;99.90
17887;DHT22;9069;52.044;7.472;2023-11-18T12:45:01;9.10;99.90
17887;DHT22;9069;52.044;7.472;2023-11-18T12:47:43;9.10;99.90
17887;DHT22;9069;52.044;7.472;2023-11-18T12:50:12;9.10;99.90
17887;DHT22;9069;52.044;7.472;2023-11-18T12:52:44;9.10;99.90
17887;DHT22;9069;52.044;7.472;2023-11-18T12:55:12;9.10;99.90
17887;DHT22;9069;52.044;7.472;2023-11-18T12:57:48;9.20;99.90
17887;DHT22;9069;52.044;7.472;2023-11-18T13:00:18;9.10;99.90
17887;DHT22;9069;52.044;7.472;2023-11-18T13:02:54;9.10;99.90
17887;DHT22;9069;52.044;7.472;2023-11-18T13:05:21;9.10;99.90
17887;DHT22;9069;52.044;7.472;2023-11-18T13:07:48;9.10;99.90
17887;DHT22;9069;52.044;7.472;2023-11-18T13:10:16;9.10;99.90
17887;DHT22;9069;52.044;7.472;2023-11-18T13:12:43;9.10;99.90
17887;DHT22;9069;52.044;7.472;2023-11-18T13:15:11;9.20;99.90
17887;DHT22;9069;52.044;7.472;2023-11-18T13:17:38;9.20;99.90
17887;DHT22;9069;52.044;7.472;2023-11-18T13:20:14;9.20;99.90
17887;DHT22;9069;52.044;7.472;2023-11-18T13:22:44;9.20;99.90
17887;DHT22;9069;52.044;7.472;2023-11-18T13:25:14;9.20;99.90
17887;DHT22;9069;52.044;7.472;2023-11-18T13:27:44;9.20;99.90
17887;DHT22;9069;52.044;7.472;2023-11-18T13:30:11;9.20;99.90
17887;DHT22;9069;52.044;7.472;2023-11-18T13:32:41;9.20;99.90
17887;DHT22;9069;52.044;7.472;2023-11-18T13:35:09;9.20;99.90
17887;DHT22;9069;52.044;7.472;2023-11-18T13:37:37;9.20;99.90
17887;DHT22;9069;52.044;7.472;2023-11-18T13:40:04;9.20;99.90
17887;DHT22;9069;52.044;7.472;2023-11-18T13:42:32;9.30;99.90
17887;DHT22;9069;52.044;7.472;2023-11-18T13:45:08;9.30;99.90
17887;DHT22;9069;52.044;7.472;2023-11-18T13:47:38;9.30;99.90
17887;DHT22;9069;52.044;7.472;2023-11-18T13:50:08;9.30;99.90
17887;DHT22;9069;52.044;7.472;2023-11-18T13:52:36;9.30;99.90
17887;DHT22;9069;52.044;7.472;2023-11-18T13:55:07;9.30;99.90
17887;DHT22;9069;52.044;7.472;2023-11-18T13:57:35;9.30;99.90
17887;DHT22;9069;52.044;7.472;2023-11-18T14:00:03;9.30;99.90
17887;DHT22;9069;52.044;7.472;2023-11-18T14:02:33;9.30;99.90
17887;DHT22;9069;52.044;7.472;2023-11-18T14:05:03;9.30;99.90
17887;DHT22;9069;52.044;7.472;2023-11-18T14:07:37;9.30;99.90
17887;DHT22;9069;52.044;7.472;2023-11-18T14:10:05;9.40;99.90
17887;DHT22;9069;52.044;7.472;2023-11-18T14:12:34;9.40;99.90
17887;DHT22;9069;52.044;7.472;2023-11-18T14:15:01;9.40;99.90
17887;DHT22;9069;52.044;7.472;2023-11-18T14:17:30;9.40;99.90
17887;DHT22;9069;52.044;7.472;2023-11-18T14:19:57;9.40;99.90
17887;DHT22;9069;52.044;7.472;2023-11-18T14:22:24;9.40;99.90
17887;DHT22;9069;52.044;7.472;2023-11-18T14:24:51;9.40;99.90
17887;DHT22;9069;52.044;7.472;2023-11-18T14:27:18;9.50;99.90
17887;DHT22;9069;52.044;7.472;2023-11-18T14:29:45;9.50;99.90
17887;DHT22;9069;52.044;7.472;2023-11-18T14:32:13;9.50;99.90
17887;DHT22;9069;52.044;7.472;2023-11-18T14:34:41;9.50;99.90
17887;DHT22;9069;52.044;7.472;2023-11-18T14:37:08;9.50;99.90
17887;DHT22;9069;52.044;7.472;2023-11-18T14:39:35;9.50;99.90
17887;DHT22;9069;52.044;7.472;2023-11-18T14:42:04;9.50;99.90
17887;DHT22;9069;52.044;7.472;2023-11-18T14:44:31;9.50;99.90
17887;DHT22;9069;52.044;7.472;2023-11-18T14:46:58;9.50;99.90
17887;DHT22;9069;52.044;7.472;2023-11-18T14:49:28;9.50;99.90
17887;DHT22;9069;52.044;7.472;2023-11-18T14:51:55;9.50;99.90
17887;DHT22;9069;52.044;7.472;2023-11-18T14:54:23;9.50;99.90
17887;DHT22;9069;52.044;7.472;2023-11-18T14:56:49;9.50;99.90
17887;DHT22;9069;52.044;7.472;2023-11-18T14:59:17;9.50;99.90
17887;DHT22;9069;52.044;7.472;2023-11-18T15:01:47;9.50;99.90
17887;DHT22;9069;52.044;7.472;2023-11-18T15:04:15;9.50;99.90
17887;DHT22;9069;52.044;7.472;2023-11-18T15:06:42;9.60;99.90
17887;DHT22;9069;52.044;7.472;2023-11-18T15:09:09;9.60;99.90
17887;DHT22;9069;52.044;7.472;2023-11-18T15:11:40;9.60;99.90
17887;DHT22;9069;52.044;7.472;2023-11-18T15:14:07;9.60;99.90
17887;DHT22;9069;52.044;7.472;2023-11-18T15:16:34;9.60;99.90
17887;DHT22;9069;52.044;7.472;2023-11-18T15:19:02;9.60;99.90
17887;DHT22;9069;52.044;7.472;2023-11-18T15:21:29;9.60;99.90
17887;DHT22;9069;52.044;7.472;2023-11-18T15:23:59;9.60;99.90
17887;DHT22;9069;52.044;7.472;2023-11-18T15:26:30;9.60;99.90
17887;DHT22;9069;52.044;7.472;2023-11-18T15:29:03;9.60;99.90
17887;DHT22;9069;52.044;7.472;2023-11-18T15:31:36;9.60;99.90
17887;DHT22;9069;52.044;7.472;2023-11-18T15:34:03;9.60;99.90
17887;DHT22;9069;52.044;7.472;2023-11-18T15:36:30;9.60;99.90
17887;DHT22;9069;52.044;7.472;2023-11-18T15:38:58;9.50;99.90
17887;DHT22;9069;52.044;7.472;2023-11-18T15:41:31;9.50;99.90
17887;DHT22;9069;52.044;7.472;2023-11-18T15:43:57;9.50;99.90
17887;DHT22;9069;52.044;7.472;2023-11-18T15:46:24;9.50;99.90
17887;DHT22;9069;52.044;7.472;2023-11-18T15:48:51;9.50;99.90
17887;DHT22;9069;52.044;7.472;2023-11-18T15:51:18;9.50;99.90
17887;DHT22;9069;52.044;7.472;2023-11-18T15:53:47;9.50;99.90
17887;DHT22;9069;52.044;7.472;2023-11-18T15:56:13;9.50;99.90
17887;DHT22;9069;52.044;7.472;2023-11-18T15:58:42;9.50;99.90
17887;DHT22;9069;52.044;7.472;2023-11-18T16:01:08;9.50;99.90
17887;DHT22;9069;52.044;7.472;2023-11-18T16:03:36;9.50;99.90
17887;DHT22;9069;52.044;7.472;2023-11-18T16:06:04;9.50;99.90
17887;DHT22;9069;52.044;7.472;2023-11-18T16:08:31;9.50;99.90
17887;DHT22;9069;52.044;7.472;2023-11-18T16:10:58;9.50;99.90
17887;DHT22;9069;52.044;7.472;2023-11-18T16:13:30;9.50;99.90
17887;DHT22;9069;52.044;7.472;2023-11-18T16:15:57;9.40;99.90
17887;DHT22;9069;52.044;7.472;2023-11-18T16:18:24;9.50;99.90
17887;DHT22;9069;52.044;7.472;2023-11-18T16:20:51;9.40;99.90
17887;DHT22;9069;52.044;7.472;2023-11-18T16:23:18;9.40;99.90
17887;DHT22;9069;52.044;7.472;2023-11-18T16:25:45;9.40;99.90
17887;DHT22;9069;52.044;7.472;2023-11-18T16:28:13;9.40;99.90
17887;DHT22;9069;52.044;7.472;2023-11-18T16:30:40;9.40;99.90